sensor_id;sensor_type;location;lat;lon;timestamp;pressure;altitude;pressure_sealevel;temperature;humidity
67842;BME280;54642;59.126;37.876;2023-04-26T00:00:49;99251.13;;;15.31;41.83
67842;BME280;54642;59.126;37.876;2023-04-26T00:03:15;99188.84;;;14.98;41.83
67842;BME280;54642;59.126;37.876;2023-04-26T00:05:41;99238.47;;;15.43;41.97
67842;BME280;54642;59.126;37.876;2023-04-26T00:08:07;99136.66;;;14.98;41.92
67842;BME280;54642;59.126;37.876;2023-04-26T00:10:33;99199.38;;;15.18;41.83
67842;BME280;54642;59.126;37.876;2023-04-26T00:12:59;99225.88;;;15.31;42.23
67842;BME280;54642;59.126;37.876;2023-04-26T00:15:25;99233.66;;;15.33;42.47
67842;BME280;54642;59.126;37.876;2023-04-26T00:17:51;99195.75;;;15.22;42.62
67842;BME280;54642;59.126;37.876;2023-04-26T00:20:17;99219.94;;;15.50;42.49
67842;BME280;54642;59.126;37.876;2023-04-26T00:22:43;99230.88;;;15.59;42.73
67842;BME280;54642;59.126;37.876;2023-04-26T00:25:09;99226.38;;;15.63;42.72
67842;BME280;54642;59.126;37.876;2023-04-26T00:27:35;99167.25;;;15.40;43.00
67842;BME280;54642;59.126;37.876;2023-04-26T00:30:01;99205.31;;;15.68;43.08
67842;BME280;54642;59.126;37.876;2023-04-26T00:32:29;99198.47;;;15.65;43.04
67842;BME280;54642;59.126;37.876;2023-04-26T00:34:56;99202.44;;;15.74;43.19
67842;BME280;54642;59.126;37.876;2023-04-26T00:37:22;99192.66;;;15.80;43.31
67842;BME280;54642;59.126;37.876;2023-04-26T00:39:48;99164.81;;;15.57;43.28
67842;BME280;54642;59.126;37.876;2023-04-26T00:42:14;99191.59;;;15.62;43.58
67842;BME280;54642;59.126;37.876;2023-04-26T00:44:40;99191.47;;;15.66;43.37
67842;BME280;54642;59.126;37.876;2023-04-26T00:47:06;99185.00;;;15.76;43.56
67842;BME280;54642;59.126;37.876;2023-04-26T00:49:32;99202.13;;;15.83;43.92
67842;BME280;54642;59.126;37.876;2023-04-26T00:51:58;99199.84;;;15.74;43.89
67842;BME280;54642;59.126;37.876;2023-04-26T00:54:25;99186.75;;;15.75;43.76
67842;BME280;54642;59.126;37.876;2023-04-26T00:56:51;99197.75;;;15.84;43.97
67842;BME280;54642;59.126;37.876;2023-04-26T00:59:21;99190.25;;;15.76;44.23
67842;BME280;54642;59.126;37.876;2023-04-26T01:01:47;99177.84;;;15.57;44.61
67842;BME280;54642;59.126;37.876;2023-04-26T01:04:14;99164.63;;;15.62;44.58
67842;BME280;54642;59.126;37.876;2023-04-26T01:06:41;99184.75;;;15.82;44.34
67842;BME280;54642;59.126;37.876;2023-04-26T01:09:07;99182.47;;;15.73;44.82
67842;BME280;54642;59.126;37.876;2023-04-26T01:11:35;99186.59;;;15.80;44.57
67842;BME280;54642;59.126;37.876;2023-04-26T01:14:03;99165.78;;;15.77;45.05
67842;BME280;54642;59.126;37.876;2023-04-26T01:16:30;99161.19;;;15.84;44.79
67842;BME280;54642;59.126;37.876;2023-04-26T01:18:57;99132.72;;;15.77;44.78
67842;BME280;54642;59.126;37.876;2023-04-26T01:21:23;99166.25;;;16.09;44.68
67842;BME280;54642;59.126;37.876;2023-04-26T01:23:50;99167.34;;;16.03;44.77
67842;BME280;54642;59.126;37.876;2023-04-26T01:26:17;99165.63;;;16.02;44.84
67842;BME280;54642;59.126;37.876;2023-04-26T01:28:43;99171.66;;;16.04;45.06
67842;BME280;54642;59.126;37.876;2023-04-26T01:31:11;99173.69;;;15.97;44.91
67842;BME280;54642;59.126;37.876;2023-04-26T01:33:37;99087.28;;;15.37;45.01
67842;BME280;54642;59.126;37.876;2023-04-26T01:36:07;99168.69;;;15.91;44.45
67842;BME280;54642;59.126;37.876;2023-04-26T01:38:34;99162.91;;;15.85;44.44
67842;BME280;54642;59.126;37.876;2023-04-26T01:41:01;99171.09;;;15.75;44.41
67842;BME280;54642;59.126;37.876;2023-04-26T01:43:30;99173.97;;;15.68;44.88
67842;BME280;54642;59.126;37.876;2023-04-26T01:45:56;99173.56;;;15.56;44.75
67842;BME280;54642;59.126;37.876;2023-04-26T01:48:29;99125.97;;;15.28;44.74
67842;BME280;54642;59.126;37.876;2023-04-26T01:50:55;99166.00;;;15.49;44.54
67842;BME280;54642;59.126;37.876;2023-04-26T01:53:21;99137.19;;;15.30;44.87
67842;BME280;54642;59.126;37.876;2023-04-26T01:55:47;99138.09;;;15.29;44.57
67842;BME280;54642;59.126;37.876;2023-04-26T01:58:13;99149.41;;;15.29;44.98
67842;BME280;54642;59.126;37.876;2023-04-26T02:00:39;99139.69;;;15.09;44.54
67842;BME280;54642;59.126;37.876;2023-04-26T02:03:04;99147.41;;;15.12;44.78
67842;BME280;54642;59.126;37.876;2023-04-26T02:05:30;99152.63;;;15.12;44.75
67842;BME280;54642;59.126;37.876;2023-04-26T02:07:56;99154.88;;;15.21;44.49
67842;BME280;54642;59.126;37.876;2023-04-26T02:10:22;99161.88;;;15.21;44.76
67842;BME280;54642;59.126;37.876;2023-04-26T02:12:49;99159.38;;;15.18;44.63
67842;BME280;54642;59.126;37.876;2023-04-26T02:15:15;99156.09;;;15.13;45.16
67842;BME280;54642;59.126;37.876;2023-04-26T02:17:41;99164.38;;;15.00;44.88
67842;BME280;54642;59.126;37.876;2023-04-26T02:20:07;99142.22;;;14.89;45.00
67842;BME280;54642;59.126;37.876;2023-04-26T02:22:35;99150.09;;;14.87;45.40
67842;BME280;54642;59.126;37.876;2023-04-26T02:25:01;99084.97;;;14.62;45.28
67842;BME280;54642;59.126;37.876;2023-04-26T02:27:30;99130.22;;;14.84;45.31
67842;BME280;54642;59.126;37.876;2023-04-26T02:29:57;99106.94;;;14.78;45.16
67842;BME280;54642;59.126;37.876;2023-04-26T02:32:23;99100.22;;;14.73;45.57
67842;BME280;54642;59.126;37.876;2023-04-26T02:34:49;99125.88;;;14.83;45.55
67842;BME280;54642;59.126;37.876;2023-04-26T02:37:15;99101.28;;;14.67;45.62
67842;BME280;54642;59.126;37.876;2023-04-26T02:39:41;99129.81;;;14.95;45.49
67842;BME280;54642;59.126;37.876;2023-04-26T02:42:10;99123.44;;;15.02;45.02
67842;BME280;54642;59.126;37.876;2023-04-26T02:44:36;99125.97;;;15.04;44.48
67842;BME280;54642;59.126;37.876;2023-04-26T02:47:04;99123.03;;;14.90;45.00
67842;BME280;54642;59.126;37.876;2023-04-26T02:49:30;99114.56;;;14.84;45.00
67842;BME280;54642;59.126;37.876;2023-04-26T02:51:56;99115.09;;;14.93;45.20
67842;BME280;54642;59.126;37.876;2023-04-26T02:54:22;99101.16;;;14.94;45.08
67842;BME280;54642;59.126;37.876;2023-04-26T02:56:48;99087.81;;;15.01;45.03
67842;BME280;54642;59.126;37.876;2023-04-26T02:59:14;99113.81;;;15.27;44.79
67842;BME280;54642;59.126;37.876;2023-04-26T03:01:41;99092.09;;;15.26;44.74
67842;BME280;54642;59.126;37.876;2023-04-26T03:04:08;99103.38;;;15.27;44.80
67842;BME280;54642;59.126;37.876;2023-04-26T03:06:35;99097.31;;;15.26;45.15
67842;BME280;54642;59.126;37.876;2023-04-26T03:09:01;99095.28;;;15.11;45.63
67842;BME280;54642;59.126;37.876;2023-04-26T03:11:27;99094.38;;;15.12;45.61
67842;BME280;54642;59.126;37.876;2023-04-26T03:13:53;99072.53;;;15.14;45.68
67842;BME280;54642;59.126;37.876;2023-04-26T03:16:21;99088.44;;;15.30;45.67
67842;BME280;54642;59.126;37.876;2023-04-26T03:18:48;99089.00;;;15.38;45.40
67842;BME280;54642;59.126;37.876;2023-04-26T03:21:14;99089.94;;;15.36;45.32
67842;BME280;54642;59.126;37.876;2023-04-26T03:23:41;99066.94;;;15.23;45.18
67842;BME280;54642;59.126;37.876;2023-04-26T03:26:07;99057.16;;;15.29;45.34
67842;BME280;54642;59.126;37.876;2023-04-26T03:28:33;99069.41;;;15.49;45.03
67842;BME280;54642;59.126;37.876;2023-04-26T03:30:59;99083.34;;;15.49;44.97
67842;BME280;54642;59.126;37.876;2023-04-26T03:33:26;99083.22;;;15.30;45.42
67842;BME280;54642;59.126;37.876;2023-04-26T03:35:52;99089.53;;;15.24;45.45
67842;BME280;54642;59.126;37.876;2023-04-26T03:38:18;99078.38;;;15.21;45.67
67842;BME280;54642;59.126;37.876;2023-04-26T03:40:44;99058.34;;;14.99;45.74
67842;BME280;54642;59.126;37.876;2023-04-26T03:43:10;99060.75;;;15.04;45.86
67842;BME280;54642;59.126;37.876;2023-04-26T03:45:37;98984.56;;;14.74;45.58
67842;BME280;54642;59.126;37.876;2023-04-26T03:48:03;99035.88;;;15.17;45.93
67842;BME280;54642;59.126;37.876;2023-04-26T03:50:29;99043.22;;;15.30;45.69
67842;BME280;54642;59.126;37.876;2023-04-26T03:52:55;99088.81;;;15.21;45.87
67842;BME280;54642;59.126;37.876;2023-04-26T03:55:21;99065.19;;;15.02;45.73
67842;BME280;54642;59.126;37.876;2023-04-26T03:57:47;99061.25;;;14.92;45.96
67842;BME280;54642;59.126;37.876;2023-04-26T04:00:14;99066.00;;;14.57;46.31
67842;BME280;54642;59.126;37.876;2023-04-26T04:02:43;99057.50;;;14.52;46.58
67842;BME280;54642;59.126;37.876;2023-04-26T04:05:14;99044.69;;;14.45;46.73
67842;BME280;54642;59.126;37.876;2023-04-26T04:07:41;99068.28;;;14.66;46.66
67842;BME280;54642;59.126;37.876;2023-04-26T04:10:07;99065.06;;;14.59;46.72
67842;BME280;54642;59.126;37.876;2023-04-26T04:12:36;99056.31;;;14.37;47.40
67842;BME280;54642;59.126;37.876;2023-04-26T04:15:02;99039.94;;;14.33;47.37
67842;BME280;54642;59.126;37.876;2023-04-26T04:17:30;99048.59;;;14.34;47.40
67842;BME280;54642;59.126;37.876;2023-04-26T04:19:55;99061.91;;;14.26;47.79
67842;BME280;54642;59.126;37.876;2023-04-26T04:22:21;99048.31;;;14.18;48.17
67842;BME280;54642;59.126;37.876;2023-04-26T04:24:48;99044.47;;;14.28;48.29
67842;BME280;54642;59.126;37.876;2023-04-26T04:27:14;99048.50;;;14.37;48.31
67842;BME280;54642;59.126;37.876;2023-04-26T04:29:41;99062.44;;;14.59;47.94
67842;BME280;54642;59.126;37.876;2023-04-26T04:32:07;99048.88;;;14.49;48.31
67842;BME280;54642;59.126;37.876;2023-04-26T04:34:35;99046.34;;;14.48;48.54
67842;BME280;54642;59.126;37.876;2023-04-26T04:37:01;99037.66;;;14.47;48.59
67842;BME280;54642;59.126;37.876;2023-04-26T04:39:29;98978.53;;;14.02;48.93
67842;BME280;54642;59.126;37.876;2023-04-26T04:41:55;99044.75;;;14.44;49.09
67842;BME280;54642;59.126;37.876;2023-04-26T04:44:23;99039.19;;;14.29;49.71
67842;BME280;54642;59.126;37.876;2023-04-26T04:46:52;98994.47;;;13.93;49.81
67842;BME280;54642;59.126;37.876;2023-04-26T04:49:19;99034.13;;;14.25;50.42
67842;BME280;54642;59.126;37.876;2023-04-26T04:51:47;99011.28;;;14.09;50.69
67842;BME280;54642;59.126;37.876;2023-04-26T04:54:15;99029.13;;;14.44;50.67
67842;BME280;54642;59.126;37.876;2023-04-26T04:56:44;98973.84;;;14.34;50.57
67842;BME280;54642;59.126;37.876;2023-04-26T04:59:12;99000.22;;;14.74;50.48
67842;BME280;54642;59.126;37.876;2023-04-26T05:01:43;99013.38;;;14.71;50.80
67842;BME280;54642;59.126;37.876;2023-04-26T05:04:18;98932.44;;;14.04;51.15
67842;BME280;54642;59.126;37.876;2023-04-26T05:06:47;98940.69;;;13.92;51.58
67842;BME280;54642;59.126;37.876;2023-04-26T05:09:13;98913.56;;;13.98;51.27
67842;BME280;54642;59.126;37.876;2023-04-26T05:11:40;99012.22;;;14.54;51.60
67842;BME280;54642;59.126;37.876;2023-04-26T05:14:08;99006.84;;;14.59;51.77
67842;BME280;54642;59.126;37.876;2023-04-26T05:16:34;99003.03;;;14.67;51.83
67842;BME280;54642;59.126;37.876;2023-04-26T05:19:01;99010.34;;;14.81;51.75
67842;BME280;54642;59.126;37.876;2023-04-26T05:21:28;98971.81;;;14.66;52.03
67842;BME280;54642;59.126;37.876;2023-04-26T05:23:54;98940.63;;;14.63;51.83
67842;BME280;54642;59.126;37.876;2023-04-26T05:26:20;98973.16;;;14.76;52.47
67842;BME280;54642;59.126;37.876;2023-04-26T05:28:49;98983.69;;;14.73;52.77
67842;BME280;54642;59.126;37.876;2023-04-26T05:31:38;98961.09;;;14.50;52.98
67842;BME280;54642;59.126;37.876;2023-04-26T05:34:24;98967.22;;;14.73;53.27
67842;BME280;54642;59.126;37.876;2023-04-26T05:36:54;98983.34;;;14.60;53.79
67842;BME280;54642;59.126;37.876;2023-04-26T05:39:21;98984.06;;;14.40;54.33
67842;BME280;54642;59.126;37.876;2023-04-26T05:41:47;98986.88;;;14.34;54.67
67842;BME280;54642;59.126;37.876;2023-04-26T05:44:13;98981.63;;;14.12;55.57
67842;BME280;54642;59.126;37.876;2023-04-26T05:46:40;98976.72;;;14.28;55.68
67842;BME280;54642;59.126;37.876;2023-04-26T05:49:08;98972.97;;;14.35;55.89
67842;BME280;54642;59.126;37.876;2023-04-26T05:51:34;98985.81;;;14.16;56.63
67842;BME280;54642;59.126;37.876;2023-04-26T05:54:00;98947.03;;;13.85;56.65
67842;BME280;54642;59.126;37.876;2023-04-26T05:56:26;98929.88;;;13.79;57.20
67842;BME280;54642;59.126;37.876;2023-04-26T05:58:54;98963.25;;;14.17;56.88
67842;BME280;54642;59.126;37.876;2023-04-26T06:01:20;98960.28;;;14.02;57.37
67842;BME280;54642;59.126;37.876;2023-04-26T06:03:46;98966.25;;;14.06;57.55
67842;BME280;54642;59.126;37.876;2023-04-26T06:06:14;98967.31;;;14.24;57.57
67842;BME280;54642;59.126;37.876;2023-04-26T06:08:41;98974.16;;;14.26;57.43
67842;BME280;54642;59.126;37.876;2023-04-26T06:11:09;98970.03;;;14.21;57.54
67842;BME280;54642;59.126;37.876;2023-04-26T06:13:35;98968.22;;;14.23;57.19
67842;BME280;54642;59.126;37.876;2023-04-26T06:16:01;98971.34;;;14.33;57.60
67842;BME280;54642;59.126;37.876;2023-04-26T06:18:27;98968.66;;;14.10;58.61
67842;BME280;54642;59.126;37.876;2023-04-26T06:20:53;98978.19;;;14.11;58.48
67842;BME280;54642;59.126;37.876;2023-04-26T06:23:19;98928.06;;;14.05;58.29
67842;BME280;54642;59.126;37.876;2023-04-26T06:25:45;98958.16;;;14.36;58.24
67842;BME280;54642;59.126;37.876;2023-04-26T06:28:11;98954.00;;;14.54;57.96
67842;BME280;54642;59.126;37.876;2023-04-26T06:30:37;98942.00;;;14.49;58.22
67842;BME280;54642;59.126;37.876;2023-04-26T06:33:04;98939.25;;;14.30;58.79
67842;BME280;54642;59.126;37.876;2023-04-26T06:35:31;98941.78;;;14.32;59.01
67842;BME280;54642;59.126;37.876;2023-04-26T06:37:57;98933.56;;;14.43;58.59
67842;BME280;54642;59.126;37.876;2023-04-26T06:40:24;98934.59;;;14.39;58.79
67842;BME280;54642;59.126;37.876;2023-04-26T06:42:51;98939.34;;;14.51;58.81
67842;BME280;54642;59.126;37.876;2023-04-26T06:45:30;98910.53;;;14.32;58.93
67842;BME280;54642;59.126;37.876;2023-04-26T06:47:57;98935.63;;;14.58;58.93
67842;BME280;54642;59.126;37.876;2023-04-26T06:50:26;98941.31;;;14.68;58.96
67842;BME280;54642;59.126;37.876;2023-04-26T06:52:52;98944.56;;;14.51;59.62
67842;BME280;54642;59.126;37.876;2023-04-26T06:55:18;98932.06;;;14.37;59.88
67842;BME280;54642;59.126;37.876;2023-04-26T06:57:44;98936.16;;;14.66;59.59
67842;BME280;54642;59.126;37.876;2023-04-26T07:00:10;98938.75;;;14.89;59.47
67842;BME280;54642;59.126;37.876;2023-04-26T07:02:37;98935.75;;;14.77;59.66
67842;BME280;54642;59.126;37.876;2023-04-26T07:05:03;98931.50;;;14.75;59.89
67842;BME280;54642;59.126;37.876;2023-04-26T07:07:29;98925.13;;;14.82;59.70
67842;BME280;54642;59.126;37.876;2023-04-26T07:09:55;98912.91;;;15.04;59.34
67842;BME280;54642;59.126;37.876;2023-04-26T07:12:21;98937.56;;;15.18;59.44
67842;BME280;54642;59.126;37.876;2023-04-26T07:14:47;98925.41;;;14.96;59.95
67842;BME280;54642;59.126;37.876;2023-04-26T07:17:13;98919.84;;;15.04;59.99
67842;BME280;54642;59.126;37.876;2023-04-26T07:19:39;98924.84;;;15.10;59.70
67842;BME280;54642;59.126;37.876;2023-04-26T07:22:05;98904.00;;;14.88;59.57
67842;BME280;54642;59.126;37.876;2023-04-26T07:24:31;98919.81;;;15.26;59.20
67842;BME280;54642;59.126;37.876;2023-04-26T07:26:57;98923.41;;;15.23;59.39
67842;BME280;54642;59.126;37.876;2023-04-26T07:29:23;98926.41;;;15.35;59.71
67842;BME280;54642;59.126;37.876;2023-04-26T07:31:48;98926.41;;;15.14;60.33
67842;BME280;54642;59.126;37.876;2023-04-26T07:34:14;98916.34;;;15.05;60.52
67842;BME280;54642;59.126;37.876;2023-04-26T07:36:40;98904.19;;;15.04;60.18
67842;BME280;54642;59.126;37.876;2023-04-26T07:39:07;98909.69;;;14.98;60.44
67842;BME280;54642;59.126;37.876;2023-04-26T07:41:34;98911.28;;;14.80;60.98
67842;BME280;54642;59.126;37.876;2023-04-26T07:44:00;98898.81;;;14.66;61.06
67842;BME280;54642;59.126;37.876;2023-04-26T07:46:26;98858.19;;;14.38;61.63
67842;BME280;54642;59.126;37.876;2023-04-26T07:48:52;98913.28;;;14.73;61.48
67842;BME280;54642;59.126;37.876;2023-04-26T07:51:18;98867.84;;;14.57;61.34
67842;BME280;54642;59.126;37.876;2023-04-26T07:53:44;98896.97;;;14.68;61.71
67842;BME280;54642;59.126;37.876;2023-04-26T07:56:10;98902.34;;;14.65;61.83
67842;BME280;54642;59.126;37.876;2023-04-26T07:58:37;98903.78;;;14.72;61.96
67842;BME280;54642;59.126;37.876;2023-04-26T08:01:04;98896.75;;;14.74;61.94
67842;BME280;54642;59.126;37.876;2023-04-26T08:03:30;98859.84;;;14.39;62.01
67842;BME280;54642;59.126;37.876;2023-04-26T08:05:56;98851.63;;;14.28;62.09
67842;BME280;54642;59.126;37.876;2023-04-26T08:08:27;98892.53;;;14.48;62.68
67842;BME280;54642;59.126;37.876;2023-04-26T08:10:53;98892.00;;;14.40;62.95
67842;BME280;54642;59.126;37.876;2023-04-26T08:13:20;98881.69;;;14.37;62.91
67842;BME280;54642;59.126;37.876;2023-04-26T08:15:47;98882.78;;;14.31;63.44
67842;BME280;54642;59.126;37.876;2023-04-26T08:18:13;98870.66;;;14.30;63.24
67842;BME280;54642;59.126;37.876;2023-04-26T08:20:39;98885.09;;;14.39;63.55
67842;BME280;54642;59.126;37.876;2023-04-26T08:23:04;98868.59;;;14.38;63.76
67842;BME280;54642;59.126;37.876;2023-04-26T08:25:31;98878.00;;;14.42;64.25
67842;BME280;54642;59.126;37.876;2023-04-26T08:27:59;98878.88;;;14.41;63.74
67842;BME280;54642;59.126;37.876;2023-04-26T08:30:26;98879.03;;;14.38;63.81
67842;BME280;54642;59.126;37.876;2023-04-26T08:32:52;98879.03;;;14.38;64.08
67842;BME280;54642;59.126;37.876;2023-04-26T08:35:18;98858.47;;;14.30;64.22
67842;BME280;54642;59.126;37.876;2023-04-26T08:37:44;98824.66;;;14.07;64.16
67842;BME280;54642;59.126;37.876;2023-04-26T08:40:10;98872.06;;;14.39;64.22
67842;BME280;54642;59.126;37.876;2023-04-26T08:42:40;98863.47;;;14.57;64.03
67842;BME280;54642;59.126;37.876;2023-04-26T08:45:07;98808.94;;;14.30;63.85
67842;BME280;54642;59.126;37.876;2023-04-26T08:50:12;98838.78;;;14.67;63.83
67842;BME280;54642;59.126;37.876;2023-04-26T08:52:40;98855.69;;;15.00;63.41
67842;BME280;54642;59.126;37.876;2023-04-26T08:55:10;98862.94;;;15.14;63.34
67842;BME280;54642;59.126;37.876;2023-04-26T08:57:42;98803.03;;;14.70;63.42
67842;BME280;54642;59.126;37.876;2023-04-26T09:00:11;98868.13;;;14.93;63.61
67842;BME280;54642;59.126;37.876;2023-04-26T09:02:46;98864.75;;;14.91;63.73
67842;BME280;54642;59.126;37.876;2023-04-26T09:05:12;98851.25;;;14.81;63.73
67842;BME280;54642;59.126;37.876;2023-04-26T09:07:40;98849.53;;;14.80;64.04
67842;BME280;54642;59.126;37.876;2023-04-26T09:10:08;98856.34;;;14.84;63.73
67842;BME280;54642;59.126;37.876;2023-04-26T09:12:34;98851.25;;;14.81;63.79
67842;BME280;54642;59.126;37.876;2023-04-26T09:15:01;98851.19;;;15.03;63.31
67842;BME280;54642;59.126;37.876;2023-04-26T09:17:38;98844.59;;;14.95;63.69
67842;BME280;54642;59.126;37.876;2023-04-26T09:20:25;98844.00;;;15.09;63.74
67842;BME280;54642;59.126;37.876;2023-04-26T09:22:55;98798.81;;;14.87;63.23
67842;BME280;54642;59.126;37.876;2023-04-26T09:25:29;98843.28;;;15.05;63.39
67842;BME280;54642;59.126;37.876;2023-04-26T09:27:56;98793.16;;;14.78;63.40
67842;BME280;54642;59.126;37.876;2023-04-26T09:30:22;98818.22;;;15.21;62.97
67842;BME280;54642;59.126;37.876;2023-04-26T09:32:59;98835.47;;;15.25;63.11
67842;BME280;54642;59.126;37.876;2023-04-26T09:35:48;98821.69;;;15.22;62.93
67842;BME280;54642;59.126;37.876;2023-04-26T09:38:15;98823.50;;;15.40;61.85
67842;BME280;54642;59.126;37.876;2023-04-26T09:40:46;98815.72;;;15.39;62.13
67842;BME280;54642;59.126;37.876;2023-04-26T09:43:17;98821.50;;;15.27;62.59
67842;BME280;54642;59.126;37.876;2023-04-26T09:45:48;98790.53;;;14.98;62.41
67842;BME280;54642;59.126;37.876;2023-04-26T09:48:17;98804.56;;;14.96;62.70
67842;BME280;54642;59.126;37.876;2023-04-26T09:50:45;98828.34;;;15.09;63.01
67842;BME280;54642;59.126;37.876;2023-04-26T09:55:50;98818.56;;;14.93;63.09
67842;BME280;54642;59.126;37.876;2023-04-26T09:58:16;98774.56;;;14.85;63.00
67842;BME280;54642;59.126;37.876;2023-04-26T10:00:42;98806.94;;;15.21;62.74
67842;BME280;54642;59.126;37.876;2023-04-26T10:03:08;98823.38;;;15.23;63.14
67842;BME280;54642;59.126;37.876;2023-04-26T10:05:35;98818.63;;;15.12;63.54
67842;BME280;54642;59.126;37.876;2023-04-26T10:08:02;98810.03;;;15.10;63.38
67842;BME280;54642;59.126;37.876;2023-04-26T10:10:29;98798.75;;;15.10;63.42
67842;BME280;54642;59.126;37.876;2023-04-26T10:12:56;98820.06;;;15.19;63.40
67842;BME280;54642;59.126;37.876;2023-04-26T10:15:22;98811.47;;;15.17;63.67
67842;BME280;54642;59.126;37.876;2023-04-26T10:17:48;98805.13;;;15.23;63.63
67842;BME280;54642;59.126;37.876;2023-04-26T10:20:15;98815.91;;;15.34;63.47
67842;BME280;54642;59.126;37.876;2023-04-26T10:22:50;98813.34;;;15.53;63.11
67842;BME280;54642;59.126;37.876;2023-04-26T10:25:17;98801.41;;;15.48;63.06
67842;BME280;54642;59.126;37.876;2023-04-26T10:35:27;98809.44;;;15.24;63.44
67842;BME280;54642;59.126;37.876;2023-04-26T10:40:30;98812.94;;;15.23;63.05
67842;BME280;54642;59.126;37.876;2023-04-26T10:45:42;98797.34;;;15.21;63.59
67842;BME280;54642;59.126;37.876;2023-04-26T10:48:16;98798.06;;;15.25;63.44
67842;BME280;54642;59.126;37.876;2023-04-26T10:53:31;98814.41;;;15.49;63.14
67842;BME280;54642;59.126;37.876;2023-04-26T10:55:57;98803.53;;;15.58;63.01
67842;BME280;54642;59.126;37.876;2023-04-26T10:58:31;98797.38;;;15.59;63.12
67842;BME280;54642;59.126;37.876;2023-04-26T11:03:41;98807.31;;;15.91;63.19
67842;BME280;54642;59.126;37.876;2023-04-26T11:06:08;98804.63;;;15.92;62.81
67842;BME280;54642;59.126;37.876;2023-04-26T11:08:38;98800.56;;;16.04;62.85
67842;BME280;54642;59.126;37.876;2023-04-26T11:11:06;98768.31;;;15.86;62.46
67842;BME280;54642;59.126;37.876;2023-04-26T11:13:40;98793.34;;;15.92;62.30
67842;BME280;54642;59.126;37.876;2023-04-26T11:16:12;98812.34;;;15.95;62.28
67842;BME280;54642;59.126;37.876;2023-04-26T11:18:40;98805.06;;;15.83;63.29
67842;BME280;54642;59.126;37.876;2023-04-26T11:21:07;98807.88;;;15.97;63.10
67842;BME280;54642;59.126;37.876;2023-04-26T11:23:34;98771.66;;;15.71;63.20
67842;BME280;54642;59.126;37.876;2023-04-26T11:26:02;98797.06;;;15.67;63.56
67842;BME280;54642;59.126;37.876;2023-04-26T11:28:33;98811.72;;;15.70;63.57
67842;BME280;54642;59.126;37.876;2023-04-26T11:31:00;98808.47;;;15.64;63.35
67842;BME280;54642;59.126;37.876;2023-04-26T11:33:26;98798.91;;;15.65;63.31
67842;BME280;54642;59.126;37.876;2023-04-26T11:35:53;98802.03;;;15.72;63.59
67842;BME280;54642;59.126;37.876;2023-04-26T11:38:27;98778.63;;;15.51;63.12
67842;BME280;54642;59.126;37.876;2023-04-26T11:40:57;98802.59;;;15.59;62.97
67842;BME280;54642;59.126;37.876;2023-04-26T11:43:39;98809.97;;;15.51;63.09
67842;BME280;54642;59.126;37.876;2023-04-26T11:46:06;98797.38;;;15.40;63.40
67842;BME280;54642;59.126;37.876;2023-04-26T11:48:34;98807.28;;;15.53;63.64
67842;BME280;54642;59.126;37.876;2023-04-26T11:51:03;98805.44;;;15.55;63.71
67842;BME280;54642;59.126;37.876;2023-04-26T11:53:40;98813.50;;;15.69;63.72
67842;BME280;54642;59.126;37.876;2023-04-26T11:56:17;98799.94;;;15.61;63.47
67842;BME280;54642;59.126;37.876;2023-04-26T11:58:50;98798.53;;;15.73;63.23
67842;BME280;54642;59.126;37.876;2023-04-26T12:01:34;98797.75;;;15.71;62.99
67842;BME280;54642;59.126;37.876;2023-04-26T12:04:00;98797.13;;;15.66;63.20
67842;BME280;54642;59.126;37.876;2023-04-26T12:06:30;98798.44;;;15.76;63.11
67842;BME280;54642;59.126;37.876;2023-04-26T12:09:01;98749.69;;;15.56;63.17
67842;BME280;54642;59.126;37.876;2023-04-26T12:11:29;98783.41;;;15.81;63.28
67842;BME280;54642;59.126;37.876;2023-04-26T12:13:57;98789.72;;;15.94;62.93
67842;BME280;54642;59.126;37.876;2023-04-26T12:16:24;98788.81;;;15.95;63.08
67842;BME280;54642;59.126;37.876;2023-04-26T12:18:50;98784.00;;;15.86;63.00
67842;BME280;54642;59.126;37.876;2023-04-26T12:21:17;98790.56;;;15.95;63.07
67842;BME280;54642;59.126;37.876;2023-04-26T12:23:43;98789.41;;;16.00;62.75
67842;BME280;54642;59.126;37.876;2023-04-26T12:26:13;98789.59;;;16.15;62.60
67842;BME280;54642;59.126;37.876;2023-04-26T12:28:39;98794.41;;;16.24;62.67
67842;BME280;54642;59.126;37.876;2023-04-26T12:31:06;98793.16;;;16.14;62.62
67842;BME280;54642;59.126;37.876;2023-04-26T12:33:33;98793.28;;;16.11;62.96
67842;BME280;54642;59.126;37.876;2023-04-26T12:36:09;98796.84;;;15.91;63.27
67842;BME280;54642;59.126;37.876;2023-04-26T12:38:36;98782.59;;;15.79;63.12
67842;BME280;54642;59.126;37.876;2023-04-26T12:41:03;98788.34;;;15.67;63.31
67842;BME280;54642;59.126;37.876;2023-04-26T12:43:29;98783.84;;;15.51;63.86
67842;BME280;54642;59.126;37.876;2023-04-26T12:45:55;98796.84;;;15.53;64.13
67842;BME280;54642;59.126;37.876;2023-04-26T12:48:21;98793.88;;;15.60;63.75
67842;BME280;54642;59.126;37.876;2023-04-26T12:50:47;98796.19;;;15.67;63.67
67842;BME280;54642;59.126;37.876;2023-04-26T12:53:13;98790.13;;;15.66;63.71
67842;BME280;54642;59.126;37.876;2023-04-26T12:55:39;98782.84;;;15.54;63.74
67842;BME280;54642;59.126;37.876;2023-04-26T12:58:05;98788.28;;;15.49;64.22
67842;BME280;54642;59.126;37.876;2023-04-26T13:00:31;98787.38;;;15.50;64.07
67842;BME280;54642;59.126;37.876;2023-04-26T13:02:57;98782.44;;;15.44;64.25
67842;BME280;54642;59.126;37.876;2023-04-26T13:05:23;98787.53;;;15.47;64.39
67842;BME280;54642;59.126;37.876;2023-04-26T13:07:50;98788.06;;;15.54;64.42
67842;BME280;54642;59.126;37.876;2023-04-26T13:10:16;98770.56;;;15.37;64.58
67842;BME280;54642;59.126;37.876;2023-04-26T13:12:42;98784.28;;;15.42;64.31
67842;BME280;54642;59.126;37.876;2023-04-26T13:15:09;98754.31;;;15.11;64.76